sensor_id;sensor_type;location;lat;lon;timestamp;P1;durP1;ratioP1;P2;durP2;ratioP2
75297;SDS011;63896;45.990;18.688;2022-10-31T00:02:36;111.10;;;25.60;;
75297;SDS011;63896;45.990;18.688;2022-10-31T00:05:49;113.57;;;26.23;;
75297;SDS011;63896;45.990;18.688;2022-10-31T00:08:53;70.53;;;23.42;;
75297;SDS011;63896;45.990;18.688;2022-10-31T00:11:58;105.20;;;22.73;;
75297;SDS011;63896;45.990;18.688;2022-10-31T00:15:01;70.13;;;22.02;;
75297;SDS011;63896;45.990;18.688;2022-10-31T00:18:04;66.32;;;22.90;;
75297;SDS011;63896;45.990;18.688;2022-10-31T00:21:08;57.80;;;22.40;;
75297;SDS011;63896;45.990;18.688;2022-10-31T00:24:11;65.93;;;23.95;;
75297;SDS011;63896;45.990;18.688;2022-10-31T00:27:14;103.97;;;24.40;;
75297;SDS011;63896;45.990;18.688;2022-10-31T00:30:17;80.88;;;22.27;;
75297;SDS011;63896;45.990;18.688;2022-10-31T00:33:20;85.03;;;22.15;;
75297;SDS011;63896;45.990;18.688;2022-10-31T00:36:23;73.93;;;21.50;;
75297;SDS011;63896;45.990;18.688;2022-10-31T00:39:26;65.53;;;22.00;;
75297;SDS011;63896;45.990;18.688;2022-10-31T00:42:29;58.37;;;22.57;;
75297;SDS011;63896;45.990;18.688;2022-10-31T00:45:33;54.97;;;21.13;;
75297;SDS011;63896;45.990;18.688;2022-10-31T00:48:35;75.57;;;20.73;;
75297;SDS011;63896;45.990;18.688;2022-10-31T00:51:38;56.53;;;20.88;;
75297;SDS011;63896;45.990;18.688;2022-10-31T00:54:41;106.97;;;21.00;;
75297;SDS011;63896;45.990;18.688;2022-10-31T00:57:47;85.57;;;19.83;;
75297;SDS011;63896;45.990;18.688;2022-10-31T01:00:50;87.50;;;20.70;;
75297;SDS011;63896;45.990;18.688;2022-10-31T01:03:57;71.10;;;20.90;;
75297;SDS011;63896;45.990;18.688;2022-10-31T01:07:01;96.10;;;20.75;;
75297;SDS011;63896;45.990;18.688;2022-10-31T01:10:04;94.70;;;21.73;;
75297;SDS011;63896;45.990;18.688;2022-10-31T01:13:08;116.67;;;22.23;;
75297;SDS011;63896;45.990;18.688;2022-10-31T01:16:12;137.00;;;22.55;;
75297;SDS011;63896;45.990;18.688;2022-10-31T01:19:18;73.80;;;21.20;;
75297;SDS011;63896;45.990;18.688;2022-10-31T01:22:22;107.47;;;22.00;;
75297;SDS011;63896;45.990;18.688;2022-10-31T01:25:25;128.85;;;22.17;;
75297;SDS011;63896;45.990;18.688;2022-10-31T01:28:29;122.50;;;21.90;;
75297;SDS011;63896;45.990;18.688;2022-10-31T01:31:33;133.52;;;23.17;;
75297;SDS011;63896;45.990;18.688;2022-10-31T01:34:38;174.85;;;23.80;;
75297;SDS011;63896;45.990;18.688;2022-10-31T01:37:41;132.23;;;23.35;;
75297;SDS011;63896;45.990;18.688;2022-10-31T01:40:44;93.25;;;22.17;;
75297;SDS011;63896;45.990;18.688;2022-10-31T01:43:54;113.60;;;22.97;;
75297;SDS011;63896;45.990;18.688;2022-10-31T01:46:59;109.53;;;21.98;;
75297;SDS011;63896;45.990;18.688;2022-10-31T01:50:11;135.70;;;22.88;;
75297;SDS011;63896;45.990;18.688;2022-10-31T01:53:17;177.32;;;21.30;;
75297;SDS011;63896;45.990;18.688;2022-10-31T01:56:28;110.82;;;21.20;;
75297;SDS011;63896;45.990;18.688;2022-10-31T01:59:31;98.23;;;21.20;;
75297;SDS011;63896;45.990;18.688;2022-10-31T02:02:38;95.68;;;21.77;;
75297;SDS011;63896;45.990;18.688;2022-10-31T02:05:42;92.03;;;21.88;;
75297;SDS011;63896;45.990;18.688;2022-10-31T02:08:46;55.80;;;20.08;;
75297;SDS011;63896;45.990;18.688;2022-10-31T02:11:52;83.85;;;19.58;;
75297;SDS011;63896;45.990;18.688;2022-10-31T02:14:59;109.57;;;22.30;;
75297;SDS011;63896;45.990;18.688;2022-10-31T02:18:03;114.35;;;22.25;;
75297;SDS011;63896;45.990;18.688;2022-10-31T02:21:11;69.47;;;19.88;;
75297;SDS011;63896;45.990;18.688;2022-10-31T02:28:08;95.53;;;21.00;;
75297;SDS011;63896;45.990;18.688;2022-10-31T02:32:02;92.60;;;20.37;;
75297;SDS011;63896;45.990;18.688;2022-10-31T02:41:59;102.07;;;20.45;;
75297;SDS011;63896;45.990;18.688;2022-10-31T02:45:29;85.38;;;20.25;;
75297;SDS011;63896;45.990;18.688;2022-10-31T02:48:38;106.50;;;21.37;;
75297;SDS011;63896;45.990;18.688;2022-10-31T02:51:44;57.60;;;20.55;;
75297;SDS011;63896;45.990;18.688;2022-10-31T02:54:47;87.15;;;18.30;;
75297;SDS011;63896;45.990;18.688;2022-10-31T02:57:51;82.78;;;18.30;;
75297;SDS011;63896;45.990;18.688;2022-10-31T03:04:45;43.50;;;17.23;;
75297;SDS011;63896;45.990;18.688;2022-10-31T03:11:32;37.58;;;16.67;;
75297;SDS011;63896;45.990;18.688;2022-10-31T03:14:53;130.25;;;20.02;;
75297;SDS011;63896;45.990;18.688;2022-10-31T03:18:17;57.85;;;18.20;;
75297;SDS011;63896;45.990;18.688;2022-10-31T03:21:32;105.07;;;18.03;;
75297;SDS011;63896;45.990;18.688;2022-10-31T03:24:52;44.63;;;16.25;;
75297;SDS011;63896;45.990;18.688;2022-10-31T03:27:58;113.03;;;17.17;;
75297;SDS011;63896;45.990;18.688;2022-10-31T03:31:07;90.63;;;17.80;;
75297;SDS011;63896;45.990;18.688;2022-10-31T03:34:14;70.80;;;18.25;;
75297;SDS011;63896;45.990;18.688;2022-10-31T03:37:19;89.43;;;18.90;;
75297;SDS011;63896;45.990;18.688;2022-10-31T03:40:24;75.88;;;20.65;;
75297;SDS011;63896;45.990;18.688;2022-10-31T03:43:32;57.67;;;19.63;;
75297;SDS011;63896;45.990;18.688;2022-10-31T03:46:39;62.55;;;18.73;;
75297;SDS011;63896;45.990;18.688;2022-10-31T03:49:43;56.75;;;19.98;;
75297;SDS011;63896;45.990;18.688;2022-10-31T03:52:53;57.43;;;19.87;;
75297;SDS011;63896;45.990;18.688;2022-10-31T03:56:07;100.03;;;20.48;;
75297;SDS011;63896;45.990;18.688;2022-10-31T03:59:17;43.75;;;18.45;;
75297;SDS011;63896;45.990;18.688;2022-10-31T04:02:28;50.90;;;18.63;;
75297;SDS011;63896;45.990;18.688;2022-10-31T04:05:35;56.15;;;20.58;;
75297;SDS011;63896;45.990;18.688;2022-10-31T04:08:41;69.40;;;17.93;;
75297;SDS011;63896;45.990;18.688;2022-10-31T04:11:54;57.13;;;16.83;;
75297;SDS011;63896;45.990;18.688;2022-10-31T04:15:19;45.25;;;18.30;;
75297;SDS011;63896;45.990;18.688;2022-10-31T04:18:24;55.17;;;18.13;;
75297;SDS011;63896;45.990;18.688;2022-10-31T04:21:28;32.53;;;15.48;;
75297;SDS011;63896;45.990;18.688;2022-10-31T04:24:33;45.70;;;16.07;;
75297;SDS011;63896;45.990;18.688;2022-10-31T04:27:36;38.05;;;16.55;;
75297;SDS011;63896;45.990;18.688;2022-10-31T04:30:38;55.03;;;17.48;;
75297;SDS011;63896;45.990;18.688;2022-10-31T04:33:41;59.72;;;16.88;;
75297;SDS011;63896;45.990;18.688;2022-10-31T04:36:44;35.40;;;15.60;;
75297;SDS011;63896;45.990;18.688;2022-10-31T04:39:50;57.20;;;17.17;;
75297;SDS011;63896;45.990;18.688;2022-10-31T04:43:11;103.95;;;18.40;;
75297;SDS011;63896;45.990;18.688;2022-10-31T04:46:17;74.95;;;17.67;;
75297;SDS011;63896;45.990;18.688;2022-10-31T04:49:20;53.05;;;18.60;;
75297;SDS011;63896;45.990;18.688;2022-10-31T04:52:23;57.13;;;18.45;;
75297;SDS011;63896;45.990;18.688;2022-10-31T04:55:27;61.03;;;20.97;;
75297;SDS011;63896;45.990;18.688;2022-10-31T04:58:32;49.65;;;17.83;;
75297;SDS011;63896;45.990;18.688;2022-10-31T05:01:35;92.88;;;17.02;;
75297;SDS011;63896;45.990;18.688;2022-10-31T05:04:38;72.47;;;18.35;;
75297;SDS011;63896;45.990;18.688;2022-10-31T05:07:42;63.42;;;18.48;;
75297;SDS011;63896;45.990;18.688;2022-10-31T05:10:46;45.83;;;16.90;;
75297;SDS011;63896;45.990;18.688;2022-10-31T05:13:49;67.32;;;17.98;;
75297;SDS011;63896;45.990;18.688;2022-10-31T05:17:12;115.35;;;19.95;;
75297;SDS011;63896;45.990;18.688;2022-10-31T05:20:50;47.28;;;16.42;;
75297;SDS011;63896;45.990;18.688;2022-10-31T05:24:00;52.30;;;18.17;;
75297;SDS011;63896;45.990;18.688;2022-10-31T05:27:04;73.20;;;18.20;;
75297;SDS011;63896;45.990;18.688;2022-10-31T05:30:07;70.90;;;23.00;;
75297;SDS011;63896;45.990;18.688;2022-10-31T05:33:12;71.85;;;20.23;;
75297;SDS011;63896;45.990;18.688;2022-10-31T05:36:33;82.03;;;19.98;;
75297;SDS011;63896;45.990;18.688;2022-10-31T05:39:39;81.90;;;21.00;;
75297;SDS011;63896;45.990;18.688;2022-10-31T05:42:47;56.30;;;19.20;;
75297;SDS011;63896;45.990;18.688;2022-10-31T05:45:53;77.13;;;16.90;;
75297;SDS011;63896;45.990;18.688;2022-10-31T05:49:15;127.50;;;17.85;;
75297;SDS011;63896;45.990;18.688;2022-10-31T05:52:37;75.07;;;15.75;;
75297;SDS011;63896;45.990;18.688;2022-10-31T05:55:50;65.10;;;16.85;;
75297;SDS011;63896;45.990;18.688;2022-10-31T05:58:55;93.10;;;18.03;;
75297;SDS011;63896;45.990;18.688;2022-10-31T06:02:01;52.08;;;15.13;;
75297;SDS011;63896;45.990;18.688;2022-10-31T06:05:26;62.42;;;15.48;;
75297;SDS011;63896;45.990;18.688;2022-10-31T06:08:30;85.50;;;19.92;;
75297;SDS011;63896;45.990;18.688;2022-10-31T06:11:36;43.03;;;14.35;;
75297;SDS011;63896;45.990;18.688;2022-10-31T06:14:39;68.90;;;14.93;;
75297;SDS011;63896;45.990;18.688;2022-10-31T06:17:42;37.40;;;14.50;;
75297;SDS011;63896;45.990;18.688;2022-10-31T06:20:57;44.70;;;14.88;;
75297;SDS011;63896;45.990;18.688;2022-10-31T06:24:00;84.25;;;19.05;;
75297;SDS011;63896;45.990;18.688;2022-10-31T06:27:29;67.22;;;15.77;;
75297;SDS011;63896;45.990;18.688;2022-10-31T06:30:36;78.27;;;15.47;;
75297;SDS011;63896;45.990;18.688;2022-10-31T06:33:42;86.88;;;17.40;;
75297;SDS011;63896;45.990;18.688;2022-10-31T06:36:46;82.40;;;15.93;;
75297;SDS011;63896;45.990;18.688;2022-10-31T06:39:50;118.57;;;15.07;;
75297;SDS011;63896;45.990;18.688;2022-10-31T06:42:57;79.07;;;13.80;;
75297;SDS011;63896;45.990;18.688;2022-10-31T06:46:05;95.70;;;14.77;;
75297;SDS011;63896;45.990;18.688;2022-10-31T06:49:14;87.03;;;15.45;;
75297;SDS011;63896;45.990;18.688;2022-10-31T06:52:24;70.53;;;15.30;;
75297;SDS011;63896;45.990;18.688;2022-10-31T06:55:27;137.93;;;15.50;;
75297;SDS011;63896;45.990;18.688;2022-10-31T06:58:31;79.05;;;15.73;;
75297;SDS011;63896;45.990;18.688;2022-10-31T07:01:36;79.17;;;14.87;;
75297;SDS011;63896;45.990;18.688;2022-10-31T07:04:39;104.43;;;15.25;;
75297;SDS011;63896;45.990;18.688;2022-10-31T07:07:43;71.78;;;16.55;;
75297;SDS011;63896;45.990;18.688;2022-10-31T07:10:51;63.40;;;15.77;;
75297;SDS011;63896;45.990;18.688;2022-10-31T07:13:57;63.88;;;16.85;;
75297;SDS011;63896;45.990;18.688;2022-10-31T07:16:59;52.40;;;18.13;;
75297;SDS011;63896;45.990;18.688;2022-10-31T07:20:16;65.38;;;16.90;;
75297;SDS011;63896;45.990;18.688;2022-10-31T07:23:19;71.65;;;15.50;;
75297;SDS011;63896;45.990;18.688;2022-10-31T07:26:39;58.35;;;16.73;;
75297;SDS011;63896;45.990;18.688;2022-10-31T07:29:42;62.28;;;15.40;;
75297;SDS011;63896;45.990;18.688;2022-10-31T07:32:49;63.27;;;16.10;;
75297;SDS011;63896;45.990;18.688;2022-10-31T07:35:53;40.80;;;16.23;;
75297;SDS011;63896;45.990;18.688;2022-10-31T07:38:59;52.53;;;15.30;;
75297;SDS011;63896;45.990;18.688;2022-10-31T07:42:06;33.80;;;14.98;;
75297;SDS011;63896;45.990;18.688;2022-10-31T07:45:11;51.33;;;15.65;;
75297;SDS011;63896;45.990;18.688;2022-10-31T07:48:51;30.27;;;15.33;;
75297;SDS011;63896;45.990;18.688;2022-10-31T07:52:12;28.67;;;14.68;;
75297;SDS011;63896;45.990;18.688;2022-10-31T07:55:33;35.88;;;14.15;;
75297;SDS011;63896;45.990;18.688;2022-10-31T07:58:37;52.17;;;16.38;;
75297;SDS011;63896;45.990;18.688;2022-10-31T08:01:40;40.35;;;15.90;;
75297;SDS011;63896;45.990;18.688;2022-10-31T08:05:06;42.53;;;15.57;;
75297;SDS011;63896;45.990;18.688;2022-10-31T08:08:32;49.25;;;16.67;;
75297;SDS011;63896;45.990;18.688;2022-10-31T08:11:40;51.28;;;17.17;;
75297;SDS011;63896;45.990;18.688;2022-10-31T08:14:42;35.72;;;16.83;;
75297;SDS011;63896;45.990;18.688;2022-10-31T08:17:46;41.05;;;18.17;;
75297;SDS011;63896;45.990;18.688;2022-10-31T08:20:49;42.47;;;16.90;;
75297;SDS011;63896;45.990;18.688;2022-10-31T08:23:52;28.90;;;15.88;;
75297;SDS011;63896;45.990;18.688;2022-10-31T08:26:58;30.25;;;17.10;;
75297;SDS011;63896;45.990;18.688;2022-10-31T08:30:00;37.55;;;19.63;;
75297;SDS011;63896;45.990;18.688;2022-10-31T08:33:06;31.10;;;19.25;;
75297;SDS011;63896;45.990;18.688;2022-10-31T08:36:33;25.50;;;16.10;;
75297;SDS011;63896;45.990;18.688;2022-10-31T08:39:46;24.58;;;15.85;;
75297;SDS011;63896;45.990;18.688;2022-10-31T08:43:23;29.88;;;15.93;;
75297;SDS011;63896;45.990;18.688;2022-10-31T08:46:19;35.05;;;15.43;;
75297;SDS011;63896;45.990;18.688;2022-10-31T08:49:22;48.63;;;16.60;;
75297;SDS011;63896;45.990;18.688;2022-10-31T08:52:25;42.30;;;17.53;;
75297;SDS011;63896;45.990;18.688;2022-10-31T08:55:48;42.08;;;18.48;;
75297;SDS011;63896;45.990;18.688;2022-10-31T08:58:58;34.35;;;19.83;;
75297;SDS011;63896;45.990;18.688;2022-10-31T09:02:19;31.45;;;15.55;;
75297;SDS011;63896;45.990;18.688;2022-10-31T09:05:25;36.75;;;14.15;;
75297;SDS011;63896;45.990;18.688;2022-10-31T09:08:32;31.90;;;15.43;;
75297;SDS011;63896;45.990;18.688;2022-10-31T09:11:36;28.90;;;16.80;;
75297;SDS011;63896;45.990;18.688;2022-10-31T09:14:45;29.77;;;16.95;;
75297;SDS011;63896;45.990;18.688;2022-10-31T09:17:58;41.72;;;16.92;;
75297;SDS011;63896;45.990;18.688;2022-10-31T09:21:07;29.65;;;17.23;;
75297;SDS011;63896;45.990;18.688;2022-10-31T09:24:10;27.10;;;17.00;;
75297;SDS011;63896;45.990;18.688;2022-10-31T09:27:13;27.98;;;16.90;;
75297;SDS011;63896;45.990;18.688;2022-10-31T09:30:19;29.40;;;17.40;;
75297;SDS011;63896;45.990;18.688;2022-10-31T09:33:23;32.92;;;18.77;;
75297;SDS011;63896;45.990;18.688;2022-10-31T09:36:46;28.05;;;18.00;;
75297;SDS011;63896;45.990;18.688;2022-10-31T09:39:54;41.60;;;18.93;;
75297;SDS011;63896;45.990;18.688;2022-10-31T09:46:16;36.58;;;17.75;;
75297;SDS011;63896;45.990;18.688;2022-10-31T09:53:02;30.30;;;16.63;;
75297;SDS011;63896;45.990;18.688;2022-10-31T09:56:13;29.77;;;17.80;;
75297;SDS011;63896;45.990;18.688;2022-10-31T09:59:21;28.58;;;17.67;;
75297;SDS011;63896;45.990;18.688;2022-10-31T10:02:36;31.10;;;18.92;;
75297;SDS011;63896;45.990;18.688;2022-10-31T10:09:14;27.80;;;17.73;;
75297;SDS011;63896;45.990;18.688;2022-10-31T10:23:56;30.65;;;16.23;;
75297;SDS011;63896;45.990;18.688;2022-10-31T10:30:48;30.80;;;18.13;;
75297;SDS011;63896;45.990;18.688;2022-10-31T10:34:16;27.75;;;18.00;;
75297;SDS011;63896;45.990;18.688;2022-10-31T10:37:36;27.80;;;17.88;;
75297;SDS011;63896;45.990;18.688;2022-10-31T10:40:42;29.65;;;18.98;;
75297;SDS011;63896;45.990;18.688;2022-10-31T10:43:47;29.42;;;19.30;;
75297;SDS011;63896;45.990;18.688;2022-10-31T10:46:53;33.13;;;20.33;;
75297;SDS011;63896;45.990;18.688;2022-10-31T10:50:21;31.23;;;18.70;;
75297;SDS011;63896;45.990;18.688;2022-10-31T11:00:18;31.05;;;19.58;;
75297;SDS011;63896;45.990;18.688;2022-10-31T11:03:35;28.07;;;17.67;;
75297;SDS011;63896;45.990;18.688;2022-10-31T11:06:38;30.60;;;19.63;;
75297;SDS011;63896;45.990;18.688;2022-10-31T11:09:41;34.35;;;21.77;;
75297;SDS011;63896;45.990;18.688;2022-10-31T11:12:45;33.28;;;20.42;;
75297;SDS011;63896;45.990;18.688;2022-10-31T11:16:02;28.98;;;19.13;;
75297;SDS011;63896;45.990;18.688;2022-10-31T11:22:17;31.83;;;20.05;;
75297;SDS011;63896;45.990;18.688;2022-10-31T11:28:24;32.05;;;20.45;;
75297;SDS011;63896;45.990;18.688;2022-10-31T11:31:29;33.33;;;21.10;;
75297;SDS011;63896;45.990;18.688;2022-10-31T11:34:34;38.73;;;26.20;;
75297;SDS011;63896;45.990;18.688;2022-10-31T11:37:41;32.92;;;21.90;;
75297;SDS011;63896;45.990;18.688;2022-10-31T11:40:57;32.80;;;21.98;;
75297;SDS011;63896;45.990;18.688;2022-10-31T11:44:13;34.67;;;20.83;;
75297;SDS011;63896;45.990;18.688;2022-10-31T11:47:17;34.63;;;22.58;;
75297;SDS011;63896;45.990;18.688;2022-10-31T11:50:25;32.20;;;20.70;;
75297;SDS011;63896;45.990;18.688;2022-10-31T11:53:34;42.58;;;27.75;;
75297;SDS011;63896;45.990;18.688;2022-10-31T11:56:38;36.00;;;22.65;;
75297;SDS011;63896;45.990;18.688;2022-10-31T11:59:50;38.03;;;23.35;;
75297;SDS011;63896;45.990;18.688;2022-10-31T12:06:28;39.17;;;24.23;;
75297;SDS011;63896;45.990;18.688;2022-10-31T12:09:36;40.20;;;24.70;;
75297;SDS011;63896;45.990;18.688;2022-10-31T12:15:54;41.53;;;26.95;;
75297;SDS011;63896;45.990;18.688;2022-10-31T12:28:56;36.53;;;23.15;;
75297;SDS011;63896;45.990;18.688;2022-10-31T12:32:21;39.03;;;23.73;;
75297;SDS011;63896;45.990;18.688;2022-10-31T12:45:51;39.78;;;25.80;;
75297;SDS011;63896;45.990;18.688;2022-10-31T12:49:04;44.08;;;26.50;;
75297;SDS011;63896;45.990;18.688;2022-10-31T12:52:21;44.58;;;27.20;;
75297;SDS011;63896;45.990;18.688;2022-10-31T12:58:53;46.08;;;27.98;;
75297;SDS011;63896;45.990;18.688;2022-10-31T13:02:09;44.00;;;26.50;;
75297;SDS011;63896;45.990;18.688;2022-10-31T13:08:34;40.78;;;24.63;;
75297;SDS011;63896;45.990;18.688;2022-10-31T13:11:45;42.27;;;25.43;;
75297;SDS011;63896;45.990;18.688;2022-10-31T13:14:53;46.60;;;26.10;;
75297;SDS011;63896;45.990;18.688;2022-10-31T13:18:01;42.95;;;25.50;;
75297;SDS011;63896;45.990;18.688;2022-10-31T13:21:11;42.22;;;25.08;;
75297;SDS011;63896;45.990;18.688;2022-10-31T13:24:22;45.40;;;26.23;;
75297;SDS011;63896;45.990;18.688;2022-10-31T13:27:34;44.33;;;25.47;;
75297;SDS011;63896;45.990;18.688;2022-10-31T13:30:46;41.05;;;24.73;;
75297;SDS011;63896;45.990;18.688;2022-10-31T13:33:58;40.88;;;24.10;;
75297;SDS011;63896;45.990;18.688;2022-10-31T13:37:15;37.30;;;22.63;;
75297;SDS011;63896;45.990;18.688;2022-10-31T13:47:21;36.72;;;22.73;;
75297;SDS011;63896;45.990;18.688;2022-10-31T13:50:28;37.65;;;22.88;;
75297;SDS011;63896;45.990;18.688;2022-10-31T13:56:48;41.40;;;22.23;;
75297;SDS011;63896;45.990;18.688;2022-10-31T13:59:54;37.00;;;22.90;;
75297;SDS011;63896;45.990;18.688;2022-10-31T14:02:59;39.03;;;23.55;;
75297;SDS011;63896;45.990;18.688;2022-10-31T14:06:02;42.88;;;23.30;;
75297;SDS011;63896;45.990;18.688;2022-10-31T14:09:14;38.38;;;23.40;;
75297;SDS011;63896;45.990;18.688;2022-10-31T14:12:44;42.38;;;24.83;;
75297;SDS011;63896;45.990;18.688;2022-10-31T14:15:56;46.83;;;25.40;;
75297;SDS011;63896;45.990;18.688;2022-10-31T14:22:23;46.63;;;26.25;;
75297;SDS011;63896;45.990;18.688;2022-10-31T14:28:31;47.67;;;27.00;;
75297;SDS011;63896;45.990;18.688;2022-10-31T14:31:37;47.30;;;26.77;;
75297;SDS011;63896;45.990;18.688;2022-10-31T14:44:41;45.38;;;25.80;;
75297;SDS011;63896;45.990;18.688;2022-10-31T14:50:56;48.33;;;27.40;;
75297;SDS011;63896;45.990;18.688;2022-10-31T14:54:00;55.47;;;29.85;;
75297;SDS011;63896;45.990;18.688;2022-10-31T14:57:06;54.30;;;28.17;;
75297;SDS011;63896;45.990;18.688;2022-10-31T15:00:19;54.47;;;28.45;;
75297;SDS011;63896;45.990;18.688;2022-10-31T15:03:30;54.40;;;29.47;;
75297;SDS011;63896;45.990;18.688;2022-10-31T15:06:47;60.45;;;29.77;;
75297;SDS011;63896;45.990;18.688;2022-10-31T15:09:56;57.40;;;29.27;;
75297;SDS011;63896;45.990;18.688;2022-10-31T15:13:10;64.93;;;30.25;;
75297;SDS011;63896;45.990;18.688;2022-10-31T15:16:21;63.63;;;30.95;;
75297;SDS011;63896;45.990;18.688;2022-10-31T15:19:27;81.70;;;36.63;;
75297;SDS011;63896;45.990;18.688;2022-10-31T15:22:32;76.43;;;36.58;;
75297;SDS011;63896;45.990;18.688;2022-10-31T15:25:35;79.45;;;36.08;;
75297;SDS011;63896;45.990;18.688;2022-10-31T15:28:38;65.40;;;32.95;;
75297;SDS011;63896;45.990;18.688;2022-10-31T15:31:50;68.57;;;33.50;;
75297;SDS011;63896;45.990;18.688;2022-10-31T15:34:54;71.30;;;32.53;;
75297;SDS011;63896;45.990;18.688;2022-10-31T15:37:58;71.18;;;33.00;;
75297;SDS011;63896;45.990;18.688;2022-10-31T15:41:18;68.60;;;33.47;;
75297;SDS011;63896;45.990;18.688;2022-10-31T15:45:04;64.10;;;31.40;;
75297;SDS011;63896;45.990;18.688;2022-10-31T15:48:20;66.90;;;31.88;;
75297;SDS011;63896;45.990;18.688;2022-10-31T15:51:27;71.00;;;33.20;;
75297;SDS011;63896;45.990;18.688;2022-10-31T15:54:32;74.60;;;33.28;;
75297;SDS011;63896;45.990;18.688;2022-10-31T16:01:04;65.97;;;32.95;;
75297;SDS011;63896;45.990;18.688;2022-10-31T16:07:15;66.17;;;33.23;;
75297;SDS011;63896;45.990;18.688;2022-10-31T16:10:25;74.50;;;36.20;;
75297;SDS011;63896;45.990;18.688;2022-10-31T16:13:30;71.45;;;32.95;;
75297;SDS011;63896;45.990;18.688;2022-10-31T16:16:39;66.97;;;30.60;;
75297;SDS011;63896;45.990;18.688;2022-10-31T16:19:51;71.72;;;31.40;;
75297;SDS011;63896;45.990;18.688;2022-10-31T16:22:55;77.97;;;34.07;;
75297;SDS011;63896;45.990;18.688;2022-10-31T16:25:59;82.70;;;36.45;;
75297;SDS011;63896;45.990;18.688;2022-10-31T16:29:23;81.35;;;34.40;;
75297;SDS011;63896;45.990;18.688;2022-10-31T16:32:33;79.30;;;34.60;;
75297;SDS011;63896;45.990;18.688;2022-10-31T16:35:54;77.32;;;33.60;;
75297;SDS011;63896;45.990;18.688;2022-10-31T16:39:18;77.63;;;34.97;;
75297;SDS011;63896;45.990;18.688;2022-10-31T16:42:20;79.97;;;34.67;;
75297;SDS011;63896;45.990;18.688;2022-10-31T16:45:25;67.38;;;31.63;;
75297;SDS011;63896;45.990;18.688;2022-10-31T16:48:29;81.88;;;36.00;;
75297;SDS011;63896;45.990;18.688;2022-10-31T16:51:32;87.53;;;37.30;;
75297;SDS011;63896;45.990;18.688;2022-10-31T16:54:34;81.30;;;34.70;;
75297;SDS011;63896;45.990;18.688;2022-10-31T16:57:37;86.45;;;34.83;;
75297;SDS011;63896;45.990;18.688;2022-10-31T17:00:40;94.78;;;36.15;;
75297;SDS011;63896;45.990;18.688;2022-10-31T17:03:43;82.88;;;34.85;;
75297;SDS011;63896;45.990;18.688;2022-10-31T17:06:46;95.07;;;39.38;;
75297;SDS011;63896;45.990;18.688;2022-10-31T17:09:49;77.93;;;32.63;;
75297;SDS011;63896;45.990;18.688;2022-10-31T17:12:52;84.65;;;34.85;;
75297;SDS011;63896;45.990;18.688;2022-10-31T17:15:59;77.13;;;32.40;;
75297;SDS011;63896;45.990;18.688;2022-10-31T17:19:05;74.35;;;31.15;;
75297;SDS011;63896;45.990;18.688;2022-10-31T17:22:12;88.75;;;35.45;;
75297;SDS011;63896;45.990;18.688;2022-10-31T17:25:18;92.37;;;37.93;;
75297;SDS011;63896;45.990;18.688;2022-10-31T17:28:24;98.50;;;38.88;;
75297;SDS011;63896;45.990;18.688;2022-10-31T17:31:29;105.85;;;38.85;;
75297;SDS011;63896;45.990;18.688;2022-10-31T17:34:33;93.35;;;38.55;;
75297;SDS011;63896;45.990;18.688;2022-10-31T17:37:36;104.13;;;45.00;;
75297;SDS011;63896;45.990;18.688;2022-10-31T17:40:39;95.20;;;40.93;;
75297;SDS011;63896;45.990;18.688;2022-10-31T17:43:43;101.97;;;42.45;;
75297;SDS011;63896;45.990;18.688;2022-10-31T17:46:46;103.85;;;43.97;;
75297;SDS011;63896;45.990;18.688;2022-10-31T17:49:49;98.40;;;40.42;;
75297;SDS011;63896;45.990;18.688;2022-10-31T17:52:54;89.80;;;39.15;;
75297;SDS011;63896;45.990;18.688;2022-10-31T17:56:01;90.37;;;38.57;;
75297;SDS011;63896;45.990;18.688;2022-10-31T17:59:05;79.65;;;34.70;;
75297;SDS011;63896;45.990;18.688;2022-10-31T18:02:09;89.78;;;38.40;;
75297;SDS011;63896;45.990;18.688;2022-10-31T18:05:12;86.15;;;37.80;;
75297;SDS011;63896;45.990;18.688;2022-10-31T18:08:15;93.38;;;38.13;;
75297;SDS011;63896;45.990;18.688;2022-10-31T18:11:19;90.17;;;38.03;;
75297;SDS011;63896;45.990;18.688;2022-10-31T18:14:23;95.43;;;37.40;;
75297;SDS011;63896;45.990;18.688;2022-10-31T18:17:26;100.20;;;39.90;;
75297;SDS011;63896;45.990;18.688;2022-10-31T18:20:29;99.97;;;39.78;;
75297;SDS011;63896;45.990;18.688;2022-10-31T18:23:32;103.95;;;39.53;;
75297;SDS011;63896;45.990;18.688;2022-10-31T18:26:35;96.73;;;38.43;;
75297;SDS011;63896;45.990;18.688;2022-10-31T18:29:38;94.50;;;37.50;;
75297;SDS011;63896;45.990;18.688;2022-10-31T18:32:41;89.38;;;37.17;;
75297;SDS011;63896;45.990;18.688;2022-10-31T18:35:44;92.20;;;37.05;;
75297;SDS011;63896;45.990;18.688;2022-10-31T18:38:47;100.85;;;39.70;;
75297;SDS011;63896;45.990;18.688;2022-10-31T18:41:50;105.90;;;41.40;;
75297;SDS011;63896;45.990;18.688;2022-10-31T18:44:56;110.90;;;42.75;;
75297;SDS011;63896;45.990;18.688;2022-10-31T18:48:10;112.78;;;42.28;;
75297;SDS011;63896;45.990;18.688;2022-10-31T18:51:14;113.18;;;41.08;;
75297;SDS011;63896;45.990;18.688;2022-10-31T18:54:19;103.82;;;39.80;;
75297;SDS011;63896;45.990;18.688;2022-10-31T18:57:22;108.63;;;40.63;;
75297;SDS011;63896;45.990;18.688;2022-10-31T19:00:25;110.70;;;37.15;;
75297;SDS011;63896;45.990;18.688;2022-10-31T19:03:28;108.63;;;37.85;;
75297;SDS011;63896;45.990;18.688;2022-10-31T19:06:31;117.70;;;39.42;;
75297;SDS011;63896;45.990;18.688;2022-10-31T19:09:35;120.75;;;38.42;;
75297;SDS011;63896;45.990;18.688;2022-10-31T19:12:38;110.43;;;38.23;;
75297;SDS011;63896;45.990;18.688;2022-10-31T19:15:41;110.85;;;38.40;;
75297;SDS011;63896;45.990;18.688;2022-10-31T19:18:45;121.40;;;38.67;;
75297;SDS011;63896;45.990;18.688;2022-10-31T19:21:48;134.73;;;40.60;;
75297;SDS011;63896;45.990;18.688;2022-10-31T19:24:51;134.50;;;40.72;;
75297;SDS011;63896;45.990;18.688;2022-10-31T19:27:54;124.27;;;40.97;;
75297;SDS011;63896;45.990;18.688;2022-10-31T19:30:57;130.50;;;40.22;;
75297;SDS011;63896;45.990;18.688;2022-10-31T19:34:04;136.23;;;41.22;;
75297;SDS011;63896;45.990;18.688;2022-10-31T19:37:07;121.53;;;39.05;;
75297;SDS011;63896;45.990;18.688;2022-10-31T19:40:10;119.20;;;38.67;;
75297;SDS011;63896;45.990;18.688;2022-10-31T19:43:13;121.60;;;38.07;;
75297;SDS011;63896;45.990;18.688;2022-10-31T19:46:17;122.53;;;40.90;;
75297;SDS011;63896;45.990;18.688;2022-10-31T19:49:34;112.00;;;36.58;;
75297;SDS011;63896;45.990;18.688;2022-10-31T19:52:37;123.88;;;38.70;;
75297;SDS011;63896;45.990;18.688;2022-10-31T19:55:40;121.72;;;39.35;;
75297;SDS011;63896;45.990;18.688;2022-10-31T19:58:44;123.43;;;38.83;;
75297;SDS011;63896;45.990;18.688;2022-10-31T20:01:47;130.73;;;40.00;;
75297;SDS011;63896;45.990;18.688;2022-10-31T20:04:50;143.43;;;40.83;;
75297;SDS011;63896;45.990;18.688;2022-10-31T20:07:54;128.23;;;39.25;;